Map

Track Data

SID SEASON NUMBER BASIN SUBBASIN NAME ISO_TIME NATURE LAT LON WMO_WIND WMO_PRES WMO_AGENCY TRACK_TYPE DIST2LAND LANDFALL IFLAG USA_AGENCY USA_ATCF_ID USA_LAT USA_LON USA_RECORD USA_STATUS USA_WIND USA_PRES USA_SSHS USA_R34_NE USA_R34_SE USA_R34_SW USA_R34_NW USA_R50_NE USA_R50_SE USA_R50_SW USA_R50_NW USA_R64_NE USA_R64_SE USA_R64_SW USA_R64_NW USA_POCI USA_ROCI USA_RMW USA_EYE TOKYO_LAT TOKYO_LON TOKYO_GRADE TOKYO_WIND TOKYO_PRES TOKYO_R50_DIR TOKYO_R50_LONG TOKYO_R50_SHORT TOKYO_R30_DIR TOKYO_R30_LONG TOKYO_R30_SHORT TOKYO_LAND CMA_LAT CMA_LON CMA_CAT CMA_WIND CMA_PRES HKO_LAT HKO_LON HKO_CAT HKO_WIND HKO_PRES NEWDELHI_LAT NEWDELHI_LON NEWDELHI_GRADE NEWDELHI_WIND NEWDELHI_PRES NEWDELHI_CI NEWDELHI_DP NEWDELHI_POCI REUNION_LAT REUNION_LON REUNION_TYPE REUNION_WIND REUNION_PRES REUNION_TNUM REUNION_CI REUNION_RMW REUNION_R34_NE REUNION_R34_SE REUNION_R34_SW REUNION_R34_NW REUNION_R50_NE REUNION_R50_SE REUNION_R50_SW REUNION_R50_NW REUNION_R64_NE REUNION_R64_SE REUNION_R64_SW REUNION_R64_NW BOM_LAT BOM_LON BOM_TYPE BOM_WIND BOM_PRES BOM_TNUM BOM_CI BOM_RMW BOM_R34_NE BOM_R34_SE BOM_R34_SW BOM_R34_NW BOM_R50_NE BOM_R50_SE BOM_R50_SW BOM_R50_NW BOM_R64_NE BOM_R64_SE BOM_R64_SW BOM_R64_NW BOM_ROCI BOM_POCI BOM_EYE BOM_POS_METHOD BOM_PRES_METHOD NADI_LAT NADI_LON NADI_CAT NADI_WIND NADI_PRES WELLINGTON_LAT WELLINGTON_LON WELLINGTON_WIND WELLINGTON_PRES DS824_LAT DS824_LON DS824_STAGE DS824_WIND DS824_PRES TD9636_LAT TD9636_LON TD9636_STAGE TD9636_WIND TD9636_PRES TD9635_LAT TD9635_LON TD9635_WIND TD9635_PRES TD9635_ROCI NEUMANN_LAT NEUMANN_LON NEUMANN_CLASS NEUMANN_WIND NEUMANN_PRES MLC_LAT MLC_LON MLC_CLASS MLC_WIND MLC_PRES USA_GUST BOM_GUST BOM_GUST_PER REUNION_GUST REUNION_GUST_PER USA_SEAHGT USA_SEARAD_NE USA_SEARAD_SE USA_SEARAD_SW USA_SEARAD_NW STORM_SPEED STORM_DIR
1890266N12338 1890 29 NA NA NOT_NAMED 1890-09-22 12:00:00 TS 12.0000 -22.5000 main 619 619 _____________O -1 12.0000 -22.5000 TD 30 5 312
1890266N12338 1890 29 NA NA NOT_NAMED 1890-09-22 15:00:00 TS 12.1626 -22.6874 main 628 628 _____________P -1 12.1626 -22.6874 TD 30 4 316
1890266N12338 1890 29 NA NA NOT_NAMED 1890-09-22 18:00:00 TS 12.3000 -22.8000 main 633 628 _____________O -1 12.3000 -22.8000 TD 30 3 330
1890266N12338 1890 29 NA NA NOT_NAMED 1890-09-22 21:00:00 TS 12.3997 -22.8252 main 628 628 _____________P -1 12.3997 -22.8252 TD 32 3 316
1890266N12338 1890 29 NA NA NOT_NAMED 1890-09-23 00:00:00 TS 12.5000 -23.0000 main 643 643 _____________O -1 12.5000 -23.0000 TS 35 8 289
1890266N12338 1890 29 NA NA NOT_NAMED 1890-09-23 03:00:00 TS 12.6503 -23.5749 main 696 696 _____________P -1 12.6503 -23.5749 TS 35 13 283
1890266N12338 1890 29 NA NA NOT_NAMED 1890-09-23 06:00:00 TS 12.8000 -24.3000 main 764 764 _____________O -1 12.8000 -24.3000 TS 35 13 281
1890266N12338 1890 29 NA NA NOT_NAMED 1890-09-23 09:00:00 TS 12.9149 -24.9300 main 824 824 _____________P -1 12.9149 -24.9300 TS 40 12 280
1890266N12338 1890 29 NA NA NOT_NAMED 1890-09-23 12:00:00 TS 13.0000 -25.5000 main 884 884 _____________O -1 13.0000 -25.5000 TS 45 10 278
1890266N12338 1890 29 NA NA NOT_NAMED 1890-09-23 15:00:00 TS 13.0498 -25.9726 main 937 935 _____________P -1 13.0498 -25.9726 TS 50 9 277
1890266N12338 1890 29 NA NA NOT_NAMED 1890-09-23 18:00:00 TS 13.1000 -26.4000 main 977 977 _____________O -1 13.1000 -26.4000 TS 55 9 280
1890266N12338 1890 29 NA NA NOT_NAMED 1890-09-23 21:00:00 TS 13.1999 -26.8500 main 1017 1017 _____________P -1 13.1999 -26.8500 TS 57 9 283
1890266N12338 1890 29 NA NA NOT_NAMED 1890-09-24 00:00:00 TS 13.3000 -27.3000 main 1069 1069 _____________O -1 13.3000 -27.3000 TS 60 9 280
1890266N12338 1890 29 NA NA NOT_NAMED 1890-09-24 03:00:00 TS 13.3575 -27.7576 main 1120 1120 _____________P -1 13.3575 -27.7576 TS 62 9 277
1890266N12338 1890 29 NA NA NOT_NAMED 1890-09-24 06:00:00 TS 13.4000 -28.2000 main 1163 1163 _____________O -1 13.4000 -28.2000 HU 65 8 277
1890266N12338 1890 29 NA NA NOT_NAMED 1890-09-24 09:00:00 TS 13.4497 -28.5775 main 1206 1205 _____________P -1 13.4497 -28.5775 HU 65 8 277
1890266N12338 1890 29 NA NA NOT_NAMED 1890-09-24 12:00:00 TS 13.5000 -29.0000 main 1247 1247 _____________O -1 13.5000 -29.0000 HU 65 10 275
1890266N12338 1890 29 NA NA NOT_NAMED 1890-09-24 15:00:00 TS 13.5426 -29.5776 main 1312 1312 _____________P -1 13.5426 -29.5776 HU 65 12 275
1890266N12338 1890 29 NA NA NOT_NAMED 1890-09-24 18:00:00 TS 13.6000 -30.2000 main 1375 1375 _____________O -1 13.6000 -30.2000 HU 65 12 278
1890266N12338 1890 29 NA NA NOT_NAMED 1890-09-24 21:00:00 TS 13.6998 -30.7574 main 1438 1438 _____________P -1 13.6998 -30.7574 HU 65 11 281
1890266N12338 1890 29 NA NA NOT_NAMED 1890-09-25 00:00:00 TS 13.8000 -31.3000 main 1491 1491 _____________O -1 13.8000 -31.3000 HU 65 11 278
1890266N12338 1890 29 NA NA NOT_NAMED 1890-09-25 03:00:00 TS 13.8574 -31.8501 main 1554 1554 _____________P -1 13.8574 -31.8501 HU 65 11 275
1890266N12338 1890 29 NA NA NOT_NAMED 1890-09-25 06:00:00 TS 13.9000 -32.4000 main 1608 1608 _____________O -1 13.9000 -32.4000 HU 65 11 275
1890266N12338 1890 29 NA NA NOT_NAMED 1890-09-25 09:00:00 TS 13.9573 -32.9350 main 1661 1661 _____________P -1 13.9573 -32.9350 HU 65 11 275
1890266N12338 1890 29 NA NA NOT_NAMED 1890-09-25 12:00:00 TS 14.0000 -33.5000 main 1725 1725 _____________O -1 14.0000 -33.5000 HU 65 12 272
1890266N12338 1890 29 NA NA NOT_NAMED 1890-09-25 15:00:00 TS 14.0075 -34.1426 main 1790 1790 _____________P -1 14.0075 -34.1426 HU 65 13 270
1890266N12338 1890 29 NA NA NOT_NAMED 1890-09-25 18:00:00 TS 14.0000 -34.8000 main 1865 1865 _____________O -1 14.0000 -34.8000 HU 65 12 270
1890266N12338 1890 29 NA NA NOT_NAMED 1890-09-25 21:00:00 TS 13.9999 -35.4225 main 1930 1930 _____________P -1 13.9999 -35.4225 HU 65 12 270
1890266N12338 1890 29 NA NA NOT_NAMED 1890-09-26 00:00:00 TS 14.0000 -36.0000 main 1939 1928 _____________O -1 14.0000 -36.0000 HU 65 11 270
1890266N12338 1890 29 NA NA NOT_NAMED 1890-09-26 03:00:00 TS 13.9998 -36.5150 main 1928 1908 _____________P -1 13.9998 -36.5150 HU 65 10 270
1890266N12338 1890 29 NA NA NOT_NAMED 1890-09-26 06:00:00 TS 14.0000 -37.0000 main 1908 1872 _____________O -1 14.0000 -37.0000 HU 65 9 270
1890266N12338 1890 29 NA NA NOT_NAMED 1890-09-26 09:00:00 TS 13.9997 -37.4775 main 1863 1819 _____________P -1 13.9997 -37.4775 HU 65 10 270
1890266N12338 1890 29 NA NA NOT_NAMED 1890-09-26 12:00:00 TS 14.0000 -38.0000 main 1819 1767 _____________O -1 14.0000 -38.0000 HU 65 11 270
1890266N12338 1890 29 NA NA NOT_NAMED 1890-09-26 15:00:00 TS 14.0001 -38.6350 main 1767 1707 _____________P -1 14.0001 -38.6350 HU 65 13 270
1890266N12338 1890 29 NA NA NOT_NAMED 1890-09-26 18:00:00 TS 14.0000 -39.3000 main 1707 1656 _____________O -1 14.0000 -39.3000 HU 65 12 270
1890266N12338 1890 29 NA NA NOT_NAMED 1890-09-26 21:00:00 TS 13.9997 -39.9000 main 1656 1607 _____________P -1 13.9997 -39.9000 HU 65 12 270
1890266N12338 1890 29 NA NA NOT_NAMED 1890-09-27 00:00:00 TS 14.0000 -40.5000 main 1607 1559 _____________O -1 14.0000 -40.5000 HU 65 12 270
1890266N12338 1890 29 NA NA NOT_NAMED 1890-09-27 03:00:00 TS 13.9999 -41.1500 main 1559 1505 _____________P -1 13.9999 -41.1500 HU 65 13 270
1890266N12338 1890 29 NA NA NOT_NAMED 1890-09-27 06:00:00 TS 14.0000 -41.8000 main 1505 1460 _____________O -1 14.0000 -41.8000 HU 65 12 270
1890266N12338 1890 29 NA NA NOT_NAMED 1890-09-27 09:00:00 TS 13.9997 -42.4000 main 1460 1417 _____________P -1 13.9997 -42.4000 HU 65 12 270
1890266N12338 1890 29 NA NA NOT_NAMED 1890-09-27 12:00:00 TS 14.0000 -43.0000 main 1417 1376 _____________O -1 14.0000 -43.0000 HU 65 12 270
1890266N12338 1890 29 NA NA NOT_NAMED 1890-09-27 15:00:00 TS 13.9999 -43.6500 main 1376 1330 _____________P -1 13.9999 -43.6500 HU 62 13 270
1890266N12338 1890 29 NA NA NOT_NAMED 1890-09-27 18:00:00 TS 14.0000 -44.3000 main 1330 1293 _____________O -1 14.0000 -44.3000 TS 60 12 270
1890266N12338 1890 29 NA NA NOT_NAMED 1890-09-27 21:00:00 TS 13.9997 -44.9000 main 1293 1255 _____________P -1 13.9997 -44.9000 TS 57 12 270
1890266N12338 1890 29 NA NA NOT_NAMED 1890-09-28 00:00:00 TS 14.0000 -45.5000 main 1255 1216 _____________O -1 14.0000 -45.5000 TS 55 12 270
1890266N12338 1890 29 NA NA NOT_NAMED 1890-09-28 03:00:00 TS 13.9999 -46.1500 main 1216 1172 _____________P -1 13.9999 -46.1500 TS 52 13 270
1890266N12338 1890 29 NA NA NOT_NAMED 1890-09-28 06:00:00 TS 14.0000 -46.8000 main 1172 1138 _____________O -1 14.0000 -46.8000 TS 50 12 271
1890266N12338 1890 29 NA NA NOT_NAMED 1890-09-28 09:00:00 TS 14.0148 -47.4074 main 1138 1107 _____________P -1 14.0148 -47.4074 TS 45 12 270
1890266N12338 1890 29 NA NA NOT_NAMED 1890-09-28 12:00:00 TS 14.0000 -48.0000 main 1107 1067 _____________O -1 14.0000 -48.0000 TS 40 12 266
1890266N12338 1890 29 NA NA NOT_NAMED 1890-09-28 15:00:00 TS 13.9373 -48.5924 main 1067 1030 _____________P -1 13.9373 -48.5924 TS 37 12 260
1890266N12338 1890 29 NA NA NOT_NAMED 1890-09-28 18:00:00 TS 13.8000 -49.2000 main 1030 986 _____________O -1 13.8000 -49.2000 TS 35 13 253
1890266N12338 1890 29 NA NA NOT_NAMED 1890-09-28 21:00:00 TS 13.5649 -49.8502 main 982 922 _____________P -1 13.5649 -49.8502 TS 32 14 248
1890266N12338 1890 29 NA NA NOT_NAMED 1890-09-29 00:00:00 TS 13.3000 -50.5000 main 922 875 _____________O -1 13.3000 -50.5000 TD 30 13 249
1890266N12338 1890 29 NA NA NOT_NAMED 1890-09-29 03:00:00 TS 13.0923 -51.0998 main 875 830 _____________P -1 13.0923 -51.0998 TD 27 12 251
1890266N12338 1890 29 NA NA NOT_NAMED 1890-09-29 06:00:00 TS 12.9000 -51.7000 main 830 789 _____________O -1 12.9000 -51.7000 TD 25 13 252
1890266N12338 1890 29 NA NA NOT_NAMED 1890-09-29 09:00:00 TS 12.7029 -52.3378 main 789 750 _____________P -1 12.7029 -52.3378 TD 25 13 252
1890266N12338 1890 29 NA NA NOT_NAMED 1890-09-29 12:00:00 TS 12.5000 -53.0000 main 750 _____________O -1 12.5000 -53.0000 TD 25 14 253

About IBTrACS Database

This database is a web-friendly format of International Best Track Archive for Climate Stewardship (IBTrACS), a global best track data archive curated by NOAA dating back to 1842.

Updated: 2021-10-08